Latest Weather Observations for Bairnsdale

IDV60801

Issued at 11:02 am EDT Thursday 2 April 2015 (issued every 30 minutes, with the page automatically refreshed every 10 minutes)

About weather observations | Map of weather stations | Latest weather observations for VIC | Other Formats
Station Details ID: 085279 Name: BAIRNSDALE AIRPORT Lat: -37.88 Lon: 147.57 Height: 49.4 m
Data from the previous 72 hours. | See also: Recent months at Bairnsdale
Date/Time
EDT
Temp
°C
App
Temp
°C
Dew
Point
Rel
Hum
%
Delta-T
°C
Wind Press
QNH
hPa
Press
MSL
hPa
Rain
since 9 am
mm
Dir
 
Spd
km/h
Gust
km/h
Spd
kts
Gust
kts
02/11:00am 15.2 6.2 6.5 56 4.2 WSW 43 56 23 30 1020.1 1020.1 0.0
02/10:37am 15.2 7.0 6.5 56 4.2 WSW 39 57 21 31 1019.9 1019.9 0.0
02/10:30am 14.9 7.4 6.5 57 4.1 WSW 35 52 19 28 1019.8 1019.8 0.0
02/10:07am 14.7 7.7 7.0 60 3.8 WSW 33 59 18 32 1019.5 1019.5 0.0
02/10:00am 14.7 7.5 7.5 62 3.6 WSW 35 50 19 27 1019.4 1019.4 0.0
02/09:35am 14.5 7.3 7.5 63 3.5 WSW 35 56 19 30 1018.9 1018.9 0.0
02/09:30am 14.6 7.4 7.6 63 3.5 WSW 35 50 19 27 1018.8 1018.8 0.0
02/09:12am 14.4 8.4 7.2 62 3.5 WSW 28 50 15 27 1018.6 1018.6 0.0
02/09:00am 13.9 8.9 7.9 67 3.0 W 24 33 13 18 1018.6 1018.6 0.0
02/08:30am 14.1 8.1 7.2 63 3.4 WSW 28 41 15 22 1018.0 1018.0 0.0
02/08:00am 13.6 8.7 8.4 71 2.6 W 24 39 13 21 1017.6 1017.6 0.0
02/07:30am 14.1 8.2 10.5 79 1.9 WSW 32 50 17 27 1017.0 1017.0 0.0
02/07:10am 14.4 8.5 10.4 77 2.1 WSW 32 50 17 27 1016.7 1016.7 0.0
02/07:00am 14.6 8.5 10.6 77 2.1 WSW 33 48 18 26 1016.4 1016.4 0.0
02/06:54am 14.8 9.8 10.8 77 2.1 WSW 28 48 15 26 1016.2 1016.2 0.0
02/06:30am 15.2 9.8 11.0 76 2.2 WSW 30 44 16 24 1015.5 1015.4 0.0
02/06:12am 15.6 9.7 11.2 75 2.4 WSW 33 54 18 29 1015.2 1015.1 0.0
02/06:00am 16.0 9.4 11.4 74 2.5 WSW 37 54 20 29 1015.0 1014.9 0.0
02/05:45am 16.5 9.3 11.9 74 2.5 WSW 41 59 22 32 1014.6 1014.5 0.0
02/05:30am 17.4 10.3 12.3 72 2.8 WSW 41 54 22 29 1014.0 1013.9 0.0
02/05:00am 18.7 14.0 13.3 71 3.1 WSW 30 41 16 22 1013.1 1013.0 0.0
02/04:30am 18.9 14.2 13.1 69 3.3 WSW 30 39 16 21 1012.8 1012.7 0.0
02/04:00am 19.3 14.1 12.8 66 3.7 WSW 32 48 17 26 1012.6 1012.5 0.0
02/03:30am 20.1 14.6 12.6 62 4.2 SW 33 44 18 24 1012.7 1012.6 0.0
02/03:09am 20.6 14.3 12.3 59 4.7 WSW 37 56 20 30 1012.6 1012.5 0.0
02/03:00am 21.3 14.5 11.9 55 5.3 WSW 39 54 21 29 1012.5 1012.4 0.0
02/02:51am 22.4 19.6 11.5 50 6.1 WNW 17 48 9 26 1012.4 1012.3 0.0
02/02:30am 20.0 19.1 11.2 57 4.8 NE 7 9 4 5 1011.3 1011.2 0.0
02/02:00am 20.6 19.4 11.5 56 5.0 NE 9 11 5 6 1011.4 1011.3 0.0
02/01:30am 21.6 20.3 11.3 52 5.7 NNE 9 11 5 6 1011.7 1011.6 0.0
02/01:00am 21.9 20.5 11.0 50 6.0 NNE 9 13 5 7 1012.0 1011.9 0.0
02/12:30am 21.9 19.8 11.0 50 6.0 NNE 13 17 7 9 1012.3 1012.2 0.0
02/12:00am 21.8 20.0 10.9 50 6.0 NNE 11 17 6 9 1012.7 1012.6 0.0
 
Date/Time
EDT
Temp
°C
App
Temp
°C
Dew
Point
Rel
Hum
%
Delta-T
°C
Wind Press
QNH
hPa
Press
MSL
hPa
Rain
since 9 am
mm
Dir
 
Spd
km/h
Gust
km/h
Spd
kts
Gust
kts
01/11:30pm 22.1 20.3 10.9 49 6.2 NNE 11 13 6 7 1013.0 1012.9 0.0
01/11:00pm 21.9 20.4 10.7 49 6.2 NNE 9 11 5 6 1013.2 1013.1 0.0
01/10:30pm 22.5 20.2 10.6 47 6.6 N 13 15 7 8 1013.4 1013.3 0.0
01/10:00pm 22.1 20.6 10.6 48 6.3 NNE 9 13 5 7 1013.1 1013.0 0.0
01/09:30pm 23.0 21.6 10.8 46 6.8 N 9 13 5 7 1013.4 1013.3 0.0
01/09:00pm 22.9 21.6 10.0 44 7.0 N 7 11 4 6 1013.7 1013.6 0.0
01/08:30pm 24.6 21.8 10.1 40 8.0 NNW 15 22 8 12 1013.7 1013.6 0.0
01/08:00pm 24.5 22.7 9.6 39 8.2 NNW 9 13 5 7 1013.5 1013.4 0.0
01/07:30pm 25.0 22.1 9.7 38 8.4 NW 15 19 8 10 1013.1 1013.0 0.0
01/07:00pm 26.0 22.3 9.4 35 9.1 NNW 19 24 10 13 1013.0 1012.9 0.0
01/06:30pm 26.9 23.3 9.7 34 9.5 NW 19 30 10 16 1012.9 1012.8 0.0
01/06:00pm 27.9 24.1 9.7 32 10.2 NNW 20 26 11 14 1012.7 1012.6 0.0
01/05:30pm 28.6 23.3 9.8 31 10.5 NNW 28 39 15 21 1012.6 1012.5 0.0
01/05:00pm 30.7 25.3 9.6 27 11.9 NNW 28 37 15 20 1012.8 1012.7 0.0
01/04:48pm 30.5 27.2 9.4 27 11.9 NNW 17 35 9 19 1013.0 1012.9 0.0
01/04:30pm 28.7 26.9 9.4 30 10.8 N 9 13 5 7 1013.2 1013.1 0.0
01/04:00pm 29.2 26.0 9.8 30 10.9 N 17 26 9 14 1013.6 1013.5 0.0
01/03:30pm 28.9 24.2 9.1 29 11.0 NNW 24 35 13 19 1013.9 1013.8 0.0
01/03:00pm 29.8 25.1 9.3 28 11.5 NNW 24 33 13 18 1014.4 1014.3 0.0
01/02:30pm 29.0 26.3 10.2 31 10.6 NNW 15 20 8 11 1014.8 1014.7 0.0
01/02:00pm 28.1 25.3 9.9 32 10.2 NNW 15 19 8 10 1015.2 1015.1 0.0
01/01:30pm 28.8 24.9 9.5 30 10.8 NNW 20 30 11 16 1015.8 1015.7 0.0
01/01:00pm 28.6 26.0 10.8 33 10.1 NNW 15 20 8 11 1016.4 1016.4 0.0
01/12:30pm 28.3 24.4 9.6 31 10.4 N 20 28 11 15 1017.1 1017.1 0.0
01/12:00pm 28.8 24.5 9.5 30 10.8 N 22 30 12 16 1017.7 1017.7 0.0
01/11:30am 27.5 23.5 8.9 31 10.2 NNW 20 30 11 16 1018.3 1018.3 0.0
01/11:00am 26.8 22.8 9.2 33 9.7 NNW 20 30 11 16 1018.8 1018.8 0.0
01/10:30am 25.8 22.0 9.2 35 9.1 NNW 19 24 10 13 1019.4 1019.3 0.0
01/10:00am 23.3 21.8 12.0 49 6.4 N 11 17 6 9 1019.8 1019.7 0.0
01/09:56am 22.7 21.0 11.1 48 6.5 NNW 11 17 6 9 1019.9 1019.8 0.0
01/09:30am 17.7 18.2 17.5 99 0.1 NNW 11 15 6 8 1020.0 1019.9 0.0
01/09:00am 14.7 15.1 14.7 100 0.0 NNE 6 7 3 4 1020.1 1020.0 0.0
01/08:30am 13.3 13.0 13.3 100 0.0 N 7 11 4 6 1020.1 1020.0 0.0
01/08:17am 12.1 11.0 12.1 100 0.0 NNW 9 9 5 5 1020.1 1020.0 0.0
01/08:00am 10.5 9.0 10.5 100 0.0 NW 9 11 5 6 1020.1 1020.0 0.0
01/07:30am 10.3 8.7 10.3 100 0.0 N 9 11 5 6 1020.1 1020.0 0.0
01/07:10am 10.7 9.2 10.7 100 0.0 N 9 11 5 6 1020.0 1019.9 0.0
01/07:00am 11.3 10.0 11.3 100 0.0 N 9 11 5 6 1020.0 1019.9 0.0
01/06:59am 11.4 10.1 11.4 100 0.0 N 9 11 5 6 1020.0 1019.9 0.0
01/06:30am 9.3 7.8 9.2 99 0.0 NNW 7 9 4 5 1020.2 1020.1 0.0
01/06:00am 10.5 9.0 10.5 100 0.0 N 9 11 5 6 1020.1 1020.0 0.0
01/05:44am 10.6 9.5 10.6 100 0.0 N 7 9 4 5 1020.1 1020.0 0.0
01/05:34am 11.4 10.7 11.4 100 0.0 NNW 6 9 3 5 1020.1 1020.0 0.0
01/05:30am 11.4 10.5 11.4 100 0.0 NNW 7 9 4 5 1020.0 1019.9 0.0
01/05:20am 10.7 9.2 10.7 100 0.0 NW 9 9 5 5 1020.1 1020.0 0.0
01/05:19am 10.7 9.2 10.7 100 0.0 NW 9 9 5 5 1020.1 1020.0 0.0
01/05:00am 9.8 7.7 9.7 99 0.0 NW 11 13 6 7 1020.2 1020.1 0.0
01/04:58am 9.5 7.7 9.4 99 0.0 NW 9 13 5 7 1020.2 1020.1 0.0
01/04:30am 9.1 7.6 9.0 99 0.0 NNW 7 7 4 4 1020.3 1020.2 0.0
01/04:00am 10.6 9.5 10.6 100 0.0 N 7 7 4 4 1020.6 1020.5 0.0
01/03:33am 10.8 9.9 10.8 100 0.0 NW 6 7 3 4 1020.9 1020.8 0.0
01/03:30am 10.7 9.8 10.5 99 0.1 NW 6 7 3 4 1021.0 1020.9 0.0
01/03:00am 10.3 8.3 10.1 99 0.1 NNW 11 11 6 6 1021.5 1021.4 0.0
01/02:30am 11.2 9.9 11.2 100 0.0 N 9 11 5 6 1021.9 1021.8 0.0
01/02:00am 10.3 9.0 10.1 99 0.1 NW 7 9 4 5 1022.3 1022.2 0.0
01/01:33am 10.5 8.9 10.3 99 0.1 N 9 11 5 6 1022.7 1022.6 0.0
01/01:30am 10.8 9.3 10.6 99 0.1 N 9 11 5 6 1022.6 1022.5 0.0
01/01:00am 11.3 10.0 11.1 99 0.1 NNW 9 11 5 6 1022.8 1022.7 0.0
01/12:30am 11.8 11.6 11.8 100 0.0 WNW 4 7 2 4 1023.1 1023.0 0.0
01/12:00am 10.1 8.4 9.9 99 0.1 WSW 9 11 5 6 1023.5 1023.4 0.0
 
Date/Time
EDT
Temp
°C
App
Temp
°C
Dew
Point
Rel
Hum
%
Delta-T
°C
Wind Press
QNH
hPa
Press
MSL
hPa
Rain
since 9 am
mm
Dir
 
Spd
km/h
Gust
km/h
Spd
kts
Gust
kts
31/11:36pm 10.4 9.2 10.2 99 0.1 WSW 7 9 4 5 1023.7 1023.6 0.0
31/11:34pm 10.9 9.8 10.7 99 0.1 WSW 7 9 4 5 1023.7 1023.6 0.0
31/11:30pm 11.5 10.2 11.3 99 0.1 WSW 9 9 5 5 1023.6 1023.5 0.0
31/11:00pm 11.1 10.1 10.9 99 0.1 WNW 7 7 4 4 1023.4 1023.3 0.0
31/10:54pm 11.1 10.1 10.9 99 0.1 W 7 7 4 4 1023.4 1023.3 0.0
31/10:30pm 11.1 10.1 10.9 99 0.1 WSW 7 9 4 5 1023.5 1023.4 0.0
31/10:09pm 11.6 10.3 11.4 99 0.1 WSW 9 9 5 5 1023.4 1023.3 0.0
31/10:00pm 11.8 10.6 11.6 99 0.1 W 9 9 5 5 1023.5 1023.4 0.0
31/09:30pm 11.3 10.4 10.8 97 0.3 WSW 6 7 3 4 1023.5 1023.4 0.0
31/09:27pm 12.0 11.4 11.7 98 0.2 WSW 6 7 3 4 1023.5 1023.4 0.0
31/09:00pm 12.1 10.9 11.6 97 0.3 WSW 9 9 5 5 1023.5 1023.4 0.0
31/08:30pm 12.8 13.4 11.9 94 0.5 CALM 0 0 0 0 1023.7 1023.6 0.0
31/08:00pm 13.8 13.8 12.5 92 0.7 S 4 6 2 3 1023.5 1023.4 0.0
31/07:34pm 15.0 15.1 12.7 86 1.3 ESE 4 6 2 3 1023.3 1023.2 0.0
31/07:30pm 16.0 16.0 13.7 86 1.3 ESE 6 7 3 4 1023.2 1023.1 0.0
31/07:00pm 17.8 18.1 15.1 84 1.6 E 7 9 4 5 1023.2 1023.1 0.0
31/06:30pm 18.6 18.3 15.5 82 1.8 ESE 11 15 6 8 1023.1 1023.0 0.0
31/06:00pm 19.1 17.6 15.2 78 2.3 SE 17 20 9 11 1023.2 1023.1 0.0
31/05:30pm 19.6 17.5 15.3 76 2.5 SE 20 28 11 15 1022.9 1022.8 0.0
31/05:00pm 19.9 17.3 14.9 73 2.9 SE 22 28 12 15 1022.7 1022.6 0.0
31/04:30pm 20.1 16.9 14.2 69 3.4 SE 24 30 13 16 1022.5 1022.4 0.0
31/04:00pm 21.2 18.5 14.6 66 3.9 ESE 22 30 12 16 1022.8 1022.7 0.0
31/03:30pm 21.4 18.5 14.1 63 4.3 SE 22 30 12 16 1022.9 1022.8 0.0
31/03:00pm 21.5 18.9 13.9 62 4.4 SE 20 26 11 14 1023.1 1023.0 0.0
31/02:30pm 22.3 20.4 13.1 56 5.3 ESE 15 24 8 13 1023.3 1023.2 0.0
31/02:00pm 22.3 20.0 13.1 56 5.3 ESE 17 24 9 13 1023.6 1023.5 0.0
31/01:30pm 22.4 20.3 11.2 49 6.2 ESE 13 19 7 10 1024.2 1024.1 0.0
31/01:00pm 21.6 19.7 10.4 49 6.1 ENE 11 17 6 9 1025.1 1025.0 0.0
31/12:30pm 21.1 19.4 11.2 53 5.5 ENE 11 13 6 7 1025.8 1025.7 0.0
31/12:00pm 19.9 16.8 10.3 54 5.2 E 17 22 9 12 1026.3 1026.3 0.0
31/11:30am 20.0 17.6 10.1 53 5.3 E 13 20 7 11 1026.7 1026.7 0.0
31/11:00am 19.1 17.8 11.4 61 4.2 E 9 13 5 7 1027.1 1027.1 0.0
31/10:30am 17.6 17.0 11.6 68 3.3 SE 6 11 3 6 1027.2 1027.2 0.0
31/10:00am 14.8 14.8 13.5 92 0.7 SW 6 7 3 4 1027.3 1027.3 0.0
31/09:30am 12.9 13.0 12.7 99 0.1 NW 4 6 2 3 1027.2 1027.2 0.0
31/09:00am 11.0 10.1 10.8 99 0.1 WNW 6 9 3 5 1027.0 1027.0 0.0
31/08:30am 9.7 7.9 9.6 99 0.0 NNW 9 11 5 6 1026.5 1026.5 0.0
31/08:01am 8.9 6.9 8.8 99 0.0 NNW 9 11 5 6 1026.5 1026.5 0.0
31/08:00am 8.8 6.8 8.7 99 0.0 NNW 9 11 5 6 1026.5 1026.5 0.0
31/07:35am 7.7 7.1 7.6 99 0.0 CALM 0 0 0 0 1026.3 1026.3 0.0
31/07:30am 7.7 7.1 7.6 99 0.0 CALM 0 0 0 0 1026.3 1026.3 0.0
31/07:00am 6.1 4.0 6.0 99 0.0 WNW 6 7 3 4 1026.3 1026.3 0.0
31/06:30am 7.0 5.0 6.9 99 0.0 NW 7 7 4 4 1025.9 1025.8 0.0
31/06:00am 8.1 5.9 8.0 99 0.0 NNW 9 11 5 6 1025.6 1025.5 0.0
31/05:52am 8.1 5.9 8.0 99 0.0 NNW 9 11 5 6 1025.5 1025.4 0.0
31/05:30am 8.9 6.9 8.8 99 0.0 NNW 9 9 5 5 1025.6 1025.5 0.0
31/05:00am 8.3 6.6 8.2 99 0.0 NW 7 9 4 5 1025.7 1025.6 0.0
31/04:57am 8.4 6.7 8.3 99 0.0 NW 7 9 4 5 1025.7 1025.6 0.0
31/04:30am 8.4 6.7 8.3 99 0.0 NW 7 9 4 5 1025.6 1025.5 0.0
31/04:00am 8.6 6.6 8.5 99 0.0 NNW 9 9 5 5 1025.7 1025.6 0.0
31/03:30am 8.5 8.1 8.4 99 0.0 CALM 0 7 0 4 1025.8 1025.7 0.0
31/03:11am 9.0 8.0 8.9 99 0.0 NNW 4 7 2 4 1026.0 1025.9 0.0
31/03:02am 9.1 7.6 9.0 99 0.0 NNW 7 7 4 4 1026.0 1025.9 0.0
31/03:00am 9.1 7.6 9.0 99 0.0 NNW 7 9 4 5 1026.0 1025.9 0.0
31/02:39am 8.4 7.3 8.3 99 0.0 WNW 4 6 2 3 1026.1 1026.0 0.0
31/02:32am 9.9 9.1 9.8 99 0.1 WNW 4 6 2 3 1026.2 1026.2 0.0
31/02:30am 9.8 8.6 9.7 99 0.1 WNW 6 6 3 3 1026.2 1026.2 0.0
31/02:00am 9.0 7.6 8.9 99 0.0 WNW 6 7 3 4 1026.3 1026.3 0.0
31/01:30am 10.4 9.4 10.2 99 0.1 NW 6 7 3 4 1026.3 1026.3 0.0
31/01:19am 10.2 9.1 10.0 99 0.1 NW 6 7 3 4 1026.2 1026.2 0.0
31/01:00am 10.2 8.5 10.0 99 0.1 NW 9 9 5 5 1026.3 1026.3 0.0
31/12:30am 10.9 9.4 10.7 99 0.1 NNW 9 11 5 6 1026.5 1026.5 0.0
31/12:06am 11.6 10.3 11.4 99 0.1 NNW 9 11 5 6 1026.6 1026.6 0.0
31/12:00am 11.9 10.7 11.7 99 0.1 NNW 9 9 5 5 1026.6 1026.6 0.0
 
Date/Time
EDT
Temp
°C
App
Temp
°C
Dew
Point
Rel
Hum
%
Delta-T
°C
Wind Press
QNH
hPa
Press
MSL
hPa
Rain
since 9 am
mm
Dir
 
Spd
km/h
Gust
km/h
Spd
kts
Gust
kts
30/11:47pm 11.9 11.1 11.6 98 0.2 NNW 7 9 4 5 1026.8 1026.8 0.0
30/11:30pm 12.3 11.6 12.1 99 0.1 NNW 7 9 4 5 1027.0 1027.0 0.0
30/11:23pm 12.0 11.2 11.7 98 0.2 NNW 7 7 4 4 1027.0 1027.0 0.0
30/11:00pm 11.1 10.0 10.5 96 0.3 N 7 7 4 4 1027.1 1027.1 0.0
30/10:37pm 10.8 10.1 9.9 94 0.5 NNE 4 6 2 3 1027.1 1027.1 0.0
30/10:30pm 10.7 10.7 9.8 94 0.5 CALM 0 6 0 3 1027.1 1027.1 0.0
30/10:00pm 11.3 10.6 10.2 93 0.6 NNE 4 6 2 3 1027.0 1027.0 0.0
30/09:30pm 12.6 11.9 11.3 92 0.7 NNE 6 7 3 4 1026.8 1026.8 0.0
30/09:00pm 13.1 12.4 11.3 89 0.9 NE 6 7 3 4 1026.6 1026.6 0.0
30/08:30pm 13.4 12.9 10.6 83 1.5 E 4 6 2 3 1026.3 1026.3 0.0
30/08:00pm 15.3 14.6 11.3 77 2.1 E 6 7 3 4 1025.9 1025.8 0.0
30/07:30pm 16.4 15.3 11.8 74 2.5 E 9 9 5 5 1025.5 1025.4 0.0
30/07:00pm 17.2 15.8 11.0 67 3.3 E 9 11 5 6 1025.1 1025.0 0.0
30/06:30pm 18.3 16.2 11.1 63 3.9 SE 13 17 7 9 1024.7 1024.6 0.0
30/06:00pm 18.9 15.5 10.5 58 4.5 SE 19 24 10 13 1024.2 1024.1 0.0
30/05:30pm 19.8 15.6 11.0 57 4.8 SE 24 28 13 15 1023.7 1023.6 0.0
30/05:00pm 20.9 16.3 9.8 49 6.0 SSE 24 32 13 17 1023.2 1023.1 0.0
30/04:30pm 21.9 17.5 10.4 48 6.3 SE 24 30 13 16 1022.9 1022.8 0.0
30/04:00pm 23.1 19.5 9.8 43 7.2 SE 19 28 10 15 1022.6 1022.5 0.0
30/03:30pm 23.1 19.4 10.2 44 7.1 SSE 20 28 11 15 1022.7 1022.6 0.0
30/03:00pm 23.4 20.6 10.1 43 7.3 SSE 15 22 8 12 1022.5 1022.4 0.0
30/02:30pm 23.5 21.0 10.9 45 7.0 SSE 15 20 8 11 1022.5 1022.4 0.0
30/02:00pm 23.5 21.2 10.6 44 7.1 S 13 20 7 11 1022.8 1022.7 0.0
30/01:30pm 23.7 22.2 10.7 44 7.2 SW 9 20 5 11 1023.1 1023.0 0.0
30/01:00pm 22.9 21.2 10.0 44 7.0 E 9 13 5 7 1023.5 1023.4 0.0
30/12:30pm 22.5 21.7 9.6 44 7.0 NNE 4 11 2 6 1023.8 1023.7 0.0
30/12:00pm 21.4 20.2 10.3 49 6.0 NNW 7 17 4 9 1024.0 1023.9 0.0
30/11:30am 20.7 19.6 10.8 53 5.4 ENE 7 13 4 7 1024.4 1024.3 0.0

Other Formats:

Comma delimited format used in spreadsheet applications
http://www.bom.gov.au/fwo/IDV60801/IDV60801.94912.axf

JavaScript Object Notation format (JSON) in row-major order
http://www.bom.gov.au/fwo/IDV60801/IDV60801.94912.json